Time;durP1;ratioP1;P1;durP2;ratioP2;P2;SDS_P1;SDS_P2;PMS_P1;PMS_P2;Temp;Humidity;BMP_temperature;BMP_pressure;BME280_temperature;BME280_humidity;BME280_pressure;Samples;Min_cycle;Max_cycle;Signal;HPM_P1;HPM_P2
2023/05/01 00:02:25;;;;;;;6.35;3.00;;;13.40;99.90;;;;;;4882384;29;20064;-93
2023/05/01 00:04:51;;;;;;;5.93;3.25;;;13.30;99.90;;;;;;4898894;29;20044;-92
2023/05/01 00:07:17;;;;;;;7.57;3.35;;;13.30;99.90;;;;;;4882587;29;20051;-92
2023/05/01 00:09:45;;;;;;;7.72;3.47;;;13.20;99.90;;;;;;4883013;29;20048;-93
2023/05/01 00:12:11;;;;;;;6.20;3.17;;;13.20;99.90;;;;;;4867244;29;20045;-92
2023/05/01 00:14:37;;;;;;;5.80;3.17;;;13.20;99.90;;;;;;4872387;29;20112;-92
2023/05/01 00:17:02;;;;;;;7.20;3.40;;;13.20;99.90;;;;;;4899527;29;20040;-91
2023/05/01 00:19:28;;;;;;;6.35;3.33;;;13.00;99.90;;;;;;4893737;29;20040;-92
2023/05/01 00:21:53;;;;;;;5.82;3.53;;;13.00;99.90;;;;;;4879642;29;20044;-93
2023/05/01 00:24:19;;;;;;;7.07;3.65;;;13.00;99.90;;;;;;4885319;29;20044;-92
2023/05/01 00:26:45;;;;;;;6.15;3.53;;;12.90;99.90;;;;;;4888851;29;20045;-92
2023/05/01 00:29:11;;;;;;;5.60;3.47;;;12.90;99.90;;;;;;4875825;29;20478;-93
2023/05/01 00:31:36;;;;;;;6.45;3.42;;;12.80;99.90;;;;;;4867107;29;20470;-92
2023/05/01 00:34:03;;;;;;;8.50;3.83;;;12.80;99.90;;;;;;4867724;29;20136;-92
2023/05/01 00:36:30;;;;;;;8.50;3.30;;;12.80;99.90;;;;;;4867476;29;20104;-92
2023/05/01 00:38:56;;;;;;;5.28;3.15;;;12.70;99.90;;;;;;4887018;29;20045;-92
2023/05/01 00:41:21;;;;;;;7.40;3.75;;;12.70;99.90;;;;;;4863803;29;20139;-92
2023/05/01 00:43:47;;;;;;;7.53;3.45;;;12.70;99.90;;;;;;4859085;29;20052;-92
2023/05/01 00:46:13;;;;;;;7.75;3.70;;;12.70;99.90;;;;;;4890157;29;20045;-92
2023/05/01 00:48:38;;;;;;;6.88;3.45;;;12.70;99.90;;;;;;4863745;29;20151;-92
2023/05/01 00:51:06;;;;;;;5.68;3.47;;;12.70;99.90;;;;;;4874018;29;20060;-92
2023/05/01 00:53:32;;;;;;;7.75;3.85;;;12.60;99.90;;;;;;4871998;29;20045;-95
2023/05/01 00:55:59;;;;;;;6.85;3.40;;;12.50;99.90;;;;;;4873129;29;20045;-92
2023/05/01 00:58:25;;;;;;;6.47;3.38;;;12.50;99.90;;;;;;4881651;29;20040;-92
2023/05/01 01:00:51;;;;;;;6.20;3.50;;;12.40;99.90;;;;;;4875462;29;20052;-93
2023/05/01 01:03:18;;;;;;;7.07;3.60;;;12.50;99.90;;;;;;4863868;29;20516;-93
2023/05/01 01:05:59;;;;;;;5.93;3.53;;;12.40;99.90;;;;;;4881382;29;20041;-92
2023/05/01 01:08:29;;;;;;;6.75;3.47;;;12.30;99.90;;;;;;4882528;29;20081;-92
2023/05/01 01:11:09;;;;;;;6.78;3.33;;;12.30;99.90;;;;;;4877378;29;20037;-92
2023/05/01 01:14:00;;;;;;;7.10;3.70;;;12.20;99.90;;;;;;4882785;29;20105;-92
2023/05/01 01:16:44;;;;;;;7.45;3.88;;;12.10;99.90;;;;;;4883199;29;20056;-92
2023/05/01 01:19:19;;;;;;;7.18;3.70;;;12.10;99.90;;;;;;4881760;29;20132;-92
2023/05/01 01:21:49;;;;;;;6.63;3.70;;;12.10;99.90;;;;;;4870280;29;20050;-92
2023/05/01 01:24:22;;;;;;;7.68;3.60;;;12.00;99.90;;;;;;4872641;29;20045;-92
2023/05/01 01:26:57;;;;;;;7.82;4.07;;;12.00;99.90;;;;;;4882070;29;20108;-91
2023/05/01 01:29:32;;;;;;;6.57;3.70;;;12.00;99.90;;;;;;4873392;29;20054;-92
2023/05/01 01:32:27;;;;;;;7.22;3.63;;;11.90;99.90;;;;;;4874145;29;20406;-93
2023/05/01 01:34:57;;;;;;;7.38;4.20;;;11.90;99.90;;;;;;4863619;29;20418;-92
2023/05/01 01:37:29;;;;;;;6.95;3.90;;;11.80;99.90;;;;;;4866188;29;20053;-92
2023/05/01 01:40:10;;;;;;;8.00;3.80;;;11.80;99.90;;;;;;4847769;29;20042;-92
2023/05/01 01:42:43;;;;;;;6.88;4.00;;;11.70;99.90;;;;;;4873723;29;20078;-91
2023/05/01 01:45:26;;;;;;;7.75;4.00;;;11.70;99.90;;;;;;4879698;29;20049;-92
2023/05/01 01:47:53;;;;;;;6.85;4.43;;;11.70;99.90;;;;;;4861788;29;20097;-92
2023/05/01 01:50:23;;;;;;;7.70;3.80;;;11.60;99.90;;;;;;4863940;29;20388;-92
2023/05/01 01:52:52;;;;;;;7.30;4.35;;;11.60;99.90;;;;;;4873925;29;20049;-91
2023/05/01 01:55:22;;;;;;;7.43;4.13;;;11.50;99.90;;;;;;4881823;29;20504;-91
2023/05/01 01:57:50;;;;;;;7.18;3.78;;;11.50;99.90;;;;;;4880972;29;20060;-91
2023/05/01 02:00:17;;;;;;;7.38;3.65;;;11.50;99.90;;;;;;4877984;29;20132;-91
2023/05/01 02:02:45;;;;;;;7.55;4.07;;;11.50;99.90;;;;;;4880911;29;20045;-92
2023/05/01 02:05:15;;;;;;;7.72;3.88;;;11.40;99.90;;;;;;4882613;29;20048;-92
2023/05/01 02:07:42;;;;;;;7.30;4.05;;;11.40;99.90;;;;;;4868672;29;20494;-92
2023/05/01 02:10:12;;;;;;;6.32;4.07;;;11.40;99.90;;;;;;4863073;29;20129;-92
2023/05/01 02:12:40;;;;;;;7.13;4.05;;;11.30;99.90;;;;;;4861946;29;20423;-92
2023/05/01 02:15:08;;;;;;;7.45;4.18;;;11.30;99.90;;;;;;4871189;29;20051;-91
2023/05/01 02:17:35;;;;;;;6.95;4.30;;;11.30;99.90;;;;;;4873502;29;20056;-93
2023/05/01 02:20:03;;;;;;;7.75;4.15;;;11.30;99.90;;;;;;4882314;29;20049;-91
2023/05/01 02:22:29;;;;;;;7.00;4.60;;;11.30;99.90;;;;;;4871383;29;20128;-92
2023/05/01 02:24:57;;;;;;;8.50;4.25;;;11.20;99.90;;;;;;4861931;29;20136;-90
2023/05/01 02:27:29;;;;;;;8.52;4.70;;;11.20;99.90;;;;;;4881328;29;20044;-92
2023/05/01 02:29:56;;;;;;;10.32;4.88;;;11.20;99.90;;;;;;4878271;29;20470;-92
2023/05/01 02:32:22;;;;;;;8.65;4.32;;;11.10;99.90;;;;;;4877100;29;20051;-92
2023/05/01 02:34:48;;;;;;;7.88;4.40;;;11.20;99.90;;;;;;4882002;29;20045;-92
2023/05/01 02:37:14;;;;;;;7.82;4.38;;;11.10;99.90;;;;;;4872490;29;20037;-92
2023/05/01 02:39:40;;;;;;;8.68;4.55;;;11.10;99.90;;;;;;4863168;29;20133;-91
2023/05/01 02:42:08;;;;;;;6.45;3.90;;;11.10;99.90;;;;;;4864722;29;20072;-91
2023/05/01 02:44:40;;;;;;;8.98;4.75;;;11.00;99.90;;;;;;4865256;29;20050;-91
2023/05/01 02:47:08;;;;;;;8.98;4.57;;;11.00;99.90;;;;;;4876601;29;20553;-92
2023/05/01 02:49:36;;;;;;;7.93;4.63;;;11.00;99.90;;;;;;4881803;29;20056;-92
2023/05/01 02:52:03;;;;;;;8.43;4.43;;;10.90;99.90;;;;;;4889917;29;20112;-91
2023/05/01 02:54:30;;;;;;;7.57;4.68;;;10.90;99.90;;;;;;4881669;29;20145;-92
2023/05/01 02:56:58;;;;;;;7.38;4.50;;;10.80;99.90;;;;;;4864362;29;20045;-91
2023/05/01 02:59:24;;;;;;;8.55;4.63;;;10.80;99.90;;;;;;4864002;29;20147;-91
2023/05/01 03:01:50;;;;;;;6.95;4.45;;;10.80;99.90;;;;;;4881106;29;20515;-92
2023/05/01 03:04:16;;;;;;;9.38;4.63;;;10.80;99.90;;;;;;4863802;29;20045;-90
2023/05/01 03:06:43;;;;;;;8.20;4.32;;;10.80;99.90;;;;;;4863195;29;20052;-90
2023/05/01 03:09:08;;;;;;;7.60;4.75;;;10.70;99.90;;;;;;4880859;29;20048;-91
2023/05/01 03:11:34;;;;;;;7.15;4.55;;;10.70;99.90;;;;;;4872180;29;20414;-90
2023/05/01 03:14:00;;;;;;;7.68;4.68;;;10.70;99.90;;;;;;4899320;29;20117;-90
2023/05/01 03:16:25;;;;;;;7.80;4.43;;;10.60;99.90;;;;;;4882656;29;20071;-91
2023/05/01 03:18:51;;;;;;;9.23;4.97;;;10.60;99.90;;;;;;4886781;29;20408;-91
2023/05/01 03:21:16;;;;;;;8.20;4.40;;;10.50;99.90;;;;;;4879970;29;20092;-91
2023/05/01 03:23:42;;;;;;;7.25;4.70;;;10.50;99.90;;;;;;4873378;29;20060;-91
2023/05/01 03:26:08;;;;;;;7.78;4.50;;;10.50;99.90;;;;;;4898963;29;20043;-91
2023/05/01 03:28:33;;;;;;;9.80;5.15;;;10.50;99.90;;;;;;4891467;29;20041;-92
2023/05/01 03:30:59;;;;;;;7.25;4.63;;;10.40;99.90;;;;;;4881425;29;20049;-91
2023/05/01 03:33:26;;;;;;;7.93;5.10;;;10.40;99.90;;;;;;4869635;29;20040;-91
2023/05/01 03:36:00;;;;;;;7.30;4.50;;;10.40;99.90;;;;;;4881869;29;20056;-91
2023/05/01 03:38:27;;;;;;;8.52;4.97;;;10.30;99.90;;;;;;4869491;29;20045;-91
2023/05/01 03:40:52;;;;;;;7.63;4.28;;;10.30;99.90;;;;;;4873726;29;20049;-92
2023/05/01 03:43:18;;;;;;;6.97;4.55;;;10.20;99.90;;;;;;4880452;29;20124;-91
2023/05/01 03:45:43;;;;;;;8.90;5.00;;;10.20;99.90;;;;;;4870209;29;20060;-91
2023/05/01 03:48:09;;;;;;;10.63;5.15;;;10.20;99.90;;;;;;4897484;29;20071;-91
2023/05/01 03:50:35;;;;;;;8.10;5.13;;;10.10;99.90;;;;;;4886286;29;20076;-91
2023/05/01 03:53:01;;;;;;;8.20;4.75;;;10.10;99.90;;;;;;4874208;29;20092;-92
2023/05/01 03:55:26;;;;;;;7.93;5.13;;;10.00;99.90;;;;;;4885819;29;20045;-91
2023/05/01 03:57:52;;;;;;;8.73;5.00;;;10.00;99.90;;;;;;4902392;29;20441;-91
2023/05/01 04:00:18;;;;;;;7.82;4.80;;;10.00;99.90;;;;;;4883769;29;20049;-90
2023/05/01 04:02:44;;;;;;;8.60;4.78;;;10.00;99.90;;;;;;4883664;29;20113;-91
2023/05/01 04:05:10;;;;;;;9.10;5.38;;;9.90;99.90;;;;;;4869838;29;20129;-91
2023/05/01 04:07:35;;;;;;;8.48;5.32;;;9.90;99.90;;;;;;4855758;29;20510;-91
2023/05/01 04:10:02;;;;;;;6.93;4.55;;;9.90;99.90;;;;;;4898287;29;20095;-91
2023/05/01 04:12:27;;;;;;;9.88;5.05;;;9.80;99.90;;;;;;4903060;29;20120;-91
2023/05/01 04:14:53;;;;;;;10.25;4.95;;;9.80;99.90;;;;;;4885354;29;20079;-91
2023/05/01 04:17:18;;;;;;;8.23;5.53;;;9.80;99.90;;;;;;4868785;29;20398;-91
2023/05/01 04:19:46;;;;;;;7.95;4.70;;;9.80;99.90;;;;;;4865396;29;20053;-91
2023/05/01 04:22:12;;;;;;;7.68;4.40;;;9.70;99.90;;;;;;4883896;29;20049;-92
2023/05/01 04:24:37;;;;;;;8.13;5.00;;;9.70;99.90;;;;;;4866006;29;20509;-90
2023/05/01 04:27:04;;;;;;;9.65;5.35;;;9.70;99.90;;;;;;4867700;29;20493;-91
2023/05/01 04:29:30;;;;;;;7.88;5.40;;;9.60;99.90;;;;;;4869944;29;20552;-91
2023/05/01 04:31:56;;;;;;;8.10;5.10;;;9.60;99.90;;;;;;4899882;29;20040;-91
2023/05/01 04:34:21;;;;;;;8.30;5.28;;;9.60;99.90;;;;;;4871807;29;20521;-91
2023/05/01 04:36:47;;;;;;;8.10;5.30;;;9.60;99.90;;;;;;4861335;29;20041;-91
2023/05/01 04:39:14;;;;;;;9.18;5.35;;;9.50;99.90;;;;;;4882887;29;20045;-91
2023/05/01 04:41:40;;;;;;;9.07;5.22;;;9.50;99.90;;;;;;4869975;29;20079;-91
2023/05/01 04:44:06;;;;;;;10.32;5.60;;;9.50;99.90;;;;;;4869404;29;20052;-90
2023/05/01 04:46:32;;;;;;;8.63;5.47;;;9.50;99.90;;;;;;4865004;29;20490;-90
2023/05/01 04:48:57;;;;;;;8.23;4.85;;;9.50;99.90;;;;;;4873606;29;20437;-89
2023/05/01 04:51:23;;;;;;;9.57;5.47;;;9.50;99.90;;;;;;4901934;29;20049;-91
2023/05/01 04:53:49;;;;;;;7.68;5.05;;;9.50;99.90;;;;;;4877498;29;20048;-91
2023/05/01 04:56:14;;;;;;;7.43;5.53;;;9.50;99.90;;;;;;4866657;29;20052;-91
2023/05/01 04:58:41;;;;;;;8.40;5.32;;;9.50;99.90;;;;;;4882977;29;20055;-90
2023/05/01 05:01:06;;;;;;;10.18;6.00;;;9.50;99.90;;;;;;4883326;29;20413;-91
2023/05/01 05:03:32;;;;;;;8.75;5.35;;;9.50;99.90;;;;;;4860999;29;20046;-90
2023/05/01 05:05:57;;;;;;;7.93;5.43;;;9.50;99.90;;;;;;4861708;29;20048;-90
2023/05/01 05:08:23;;;;;;;9.98;5.50;;;9.50;99.90;;;;;;4867985;29;20045;-89
2023/05/01 05:10:49;;;;;;;8.82;5.63;;;9.50;99.90;;;;;;4886075;29;20054;-89
2023/05/01 05:13:14;;;;;;;8.32;5.10;;;9.50;99.90;;;;;;4879470;29;20041;-88
2023/05/01 05:15:40;;;;;;;8.55;5.55;;;9.50;99.90;;;;;;4854922;29;20080;-91
2023/05/01 05:18:05;;;;;;;11.20;5.70;;;9.50;99.90;;;;;;4881199;29;20408;-89
2023/05/01 05:20:31;;;;;;;9.40;5.72;;;9.50;99.90;;;;;;4884861;29;20048;-89
2023/05/01 05:22:57;;;;;;;8.20;5.28;;;9.50;99.90;;;;;;4865458;29;20049;-89
2023/05/01 05:25:23;;;;;;;8.48;5.60;;;9.40;99.90;;;;;;4865616;29;20489;-89
2023/05/01 05:27:49;;;;;;;9.65;5.65;;;9.40;99.90;;;;;;4871118;29;20120;-88
2023/05/01 05:30:15;;;;;;;10.73;5.72;;;9.50;99.90;;;;;;4878378;29;20509;-90
2023/05/01 05:32:40;;;;;;;9.30;5.45;;;9.40;99.90;;;;;;4850747;29;20037;-89
2023/05/01 05:35:06;;;;;;;10.05;6.00;;;9.40;99.90;;;;;;4867504;29;20409;-89
2023/05/01 05:37:32;;;;;;;8.85;5.40;;;9.40;99.90;;;;;;4867973;29;20046;-89
2023/05/01 05:39:57;;;;;;;9.52;6.13;;;9.40;99.90;;;;;;4876690;29;20052;-90
2023/05/01 05:42:23;;;;;;;9.32;5.90;;;9.40;99.90;;;;;;4875328;29;20044;-90
2023/05/01 05:44:49;;;;;;;10.68;5.72;;;9.40;99.90;;;;;;4891029;29;20055;-89
2023/05/01 05:47:14;;;;;;;9.38;5.50;;;9.40;99.90;;;;;;4882372;29;20033;-90
2023/05/01 05:49:40;;;;;;;9.88;6.18;;;9.40;99.90;;;;;;4890402;29;20200;-90
2023/05/01 05:52:06;;;;;;;11.18;6.10;;;9.40;99.90;;;;;;4865096;29;20080;-91
2023/05/01 05:54:31;;;;;;;9.63;6.05;;;9.40;99.90;;;;;;4870108;29;20052;-88
2023/05/01 05:56:57;;;;;;;9.43;5.95;;;9.50;99.90;;;;;;4873282;29;20041;-90
2023/05/01 05:59:22;;;;;;;10.43;6.18;;;9.50;99.90;;;;;;4857562;29;20046;-89
2023/05/01 06:01:48;;;;;;;8.43;5.78;;;9.50;99.90;;;;;;4869083;29;20087;-90
2023/05/01 06:04:13;;;;;;;9.80;6.00;;;9.50;99.90;;;;;;4859941;29;20081;-91
2023/05/01 06:06:39;;;;;;;9.07;5.80;;;9.50;99.90;;;;;;4878655;29;20127;-91
2023/05/01 06:09:07;;;;;;;9.25;6.25;;;9.50;99.90;;;;;;4885800;29;20044;-89
2023/05/01 06:11:33;;;;;;;8.73;6.03;;;9.50;99.90;;;;;;4889030;29;20053;-89
2023/05/01 06:13:59;;;;;;;9.07;6.35;;;9.50;99.90;;;;;;4865224;29;20510;-86
2023/05/01 06:16:25;;;;;;;9.48;5.82;;;9.60;99.90;;;;;;4893565;29;20044;-90
2023/05/01 06:18:51;;;;;;;8.98;6.30;;;9.60;99.90;;;;;;4879040;29;20504;-91
2023/05/01 06:21:17;;;;;;;9.07;6.55;;;9.60;99.90;;;;;;4894990;29;20445;-91
2023/05/01 06:23:42;;;;;;;9.30;5.90;;;9.60;99.90;;;;;;4863989;29;20041;-87
2023/05/01 06:26:08;;;;;;;10.23;6.25;;;9.70;99.90;;;;;;4880418;29;20053;-87
2023/05/01 06:28:34;;;;;;;11.95;6.07;;;9.70;99.90;;;;;;4855021;29;20483;-87
2023/05/01 06:31:00;;;;;;;11.95;6.22;;;9.70;99.90;;;;;;4866042;29;20052;-86
2023/05/01 06:33:25;;;;;;;8.48;5.78;;;9.70;99.90;;;;;;4862023;29;20041;-86
2023/05/01 06:35:51;;;;;;;9.75;6.00;;;9.80;99.90;;;;;;4871482;29;20437;-88
2023/05/01 06:38:16;;;;;;;8.35;5.63;;;9.80;99.90;;;;;;4882309;29;20045;-89
2023/05/01 06:40:45;;;;;;;9.00;6.22;;;9.90;99.90;;;;;;4862679;29;20049;-88
2023/05/01 06:43:11;;;;;;;11.23;6.10;;;9.90;99.90;;;;;;4844531;29;20522;-88
2023/05/01 06:45:38;;;;;;;9.40;6.03;;;10.00;99.90;;;;;;4871449;29;20046;-87
2023/05/01 06:48:04;;;;;;;8.95;5.93;;;10.00;99.90;;;;;;4844615;29;20061;-88
2023/05/01 06:50:30;;;;;;;8.63;5.45;;;10.10;99.90;;;;;;4871673;29;20045;-88
2023/05/01 06:52:57;;;;;;;9.45;5.85;;;10.10;99.90;;;;;;4861522;29;20051;-88
2023/05/01 06:55:23;;;;;;;9.52;5.90;;;10.10;99.90;;;;;;4875986;29;20044;-88
2023/05/01 06:57:48;;;;;;;7.95;5.40;;;10.20;99.90;;;;;;4878862;29;20089;-87
2023/05/01 07:00:15;;;;;;;10.50;6.40;;;10.20;99.90;;;;;;4864956;29;20072;-87
2023/05/01 07:02:41;;;;;;;8.15;5.57;;;10.30;99.90;;;;;;4861549;29;20466;-87
2023/05/01 07:05:07;;;;;;;9.43;6.30;;;10.30;99.90;;;;;;4859220;29;20041;-88
2023/05/01 07:07:32;;;;;;;9.15;5.75;;;10.40;99.90;;;;;;4855586;29;20057;-87
2023/05/01 07:09:58;;;;;;;10.13;6.07;;;10.40;99.90;;;;;;4861729;29;20056;-87
2023/05/01 07:12:23;;;;;;;10.75;5.95;;;10.50;99.90;;;;;;4873012;29;20044;-85
2023/05/01 07:14:49;;;;;;;9.88;5.97;;;10.50;99.90;;;;;;4875016;29;20409;-87
2023/05/01 07:17:14;;;;;;;9.38;6.05;;;10.60;99.90;;;;;;4863250;29;20041;-89
2023/05/01 07:19:40;;;;;;;11.20;5.70;;;10.60;99.90;;;;;;4860271;29;20042;-89
2023/05/01 07:22:05;;;;;;;9.57;5.88;;;10.70;99.90;;;;;;4868098;29;20044;-89
2023/05/01 07:24:31;;;;;;;9.90;5.93;;;10.70;99.90;;;;;;4884337;29;20053;-89
2023/05/01 07:26:57;;;;;;;10.63;5.90;;;10.80;99.90;;;;;;4886774;29;20051;-89
2023/05/01 07:29:22;;;;;;;9.75;6.25;;;10.80;99.90;;;;;;4867830;29;20109;-87
2023/05/01 07:31:48;;;;;;;9.50;5.70;;;10.90;99.90;;;;;;4861520;29;20049;-89
2023/05/01 07:34:15;;;;;;;11.52;6.28;;;11.00;99.90;;;;;;4860887;29;20045;-89
2023/05/01 07:36:40;;;;;;;14.43;5.53;;;11.00;99.90;;;;;;4877783;29;20119;-88
2023/05/01 07:39:06;;;;;;;12.95;6.43;;;11.10;99.90;;;;;;4871501;29;20128;-88
2023/05/01 07:41:31;;;;;;;11.38;5.75;;;11.20;99.90;;;;;;4855490;29;20053;-89
2023/05/01 07:43:58;;;;;;;11.75;5.78;;;11.30;99.90;;;;;;4882145;29;20127;-89
2023/05/01 07:46:24;;;;;;;11.38;5.88;;;11.40;99.90;;;;;;4861819;29;20051;-89
2023/05/01 07:48:49;;;;;;;11.18;5.93;;;11.40;99.90;;;;;;4878098;29;20057;-90
2023/05/01 07:51:17;;;;;;;9.48;5.32;;;11.50;99.90;;;;;;4861434;29;20514;-90
2023/05/01 07:53:43;;;;;;;10.35;5.63;;;11.60;99.90;;;;;;4864695;29;20052;-90
2023/05/01 07:56:09;;;;;;;8.70;6.03;;;11.70;99.90;;;;;;4864157;29;20068;-90
2023/05/01 07:58:36;;;;;;;9.48;5.60;;;11.80;99.90;;;;;;4879025;29;20128;-90
2023/05/01 08:01:02;;;;;;;11.48;5.25;;;11.80;99.90;;;;;;4889858;29;20097;-90
2023/05/01 08:03:29;;;;;;;10.50;5.38;;;11.90;99.90;;;;;;4868206;29;20128;-88
2023/05/01 08:05:55;;;;;;;11.43;4.95;;;11.90;99.90;;;;;;4877638;29;20049;-90
2023/05/01 08:08:20;;;;;;;10.45;4.85;;;12.00;99.50;;;;;;4862014;29;20466;-89
2023/05/01 08:10:47;;;;;;;14.40;4.32;;;12.10;99.20;;;;;;4878598;29;20128;-90
2023/05/01 08:13:12;;;;;;;10.57;4.95;;;12.10;98.00;;;;;;4869639;29;20108;-90
2023/05/01 08:15:41;;;;;;;9.02;4.50;;;12.30;98.00;;;;;;4865319;29;20405;-89
2023/05/01 08:18:10;;;;;;;9.38;5.47;;;12.40;98.60;;;;;;4868024;29;20041;-89
2023/05/01 08:20:35;;;;;;;9.98;5.13;;;12.40;99.00;;;;;;4859115;29;20049;-89
2023/05/01 08:23:01;;;;;;;8.13;4.90;;;12.50;99.30;;;;;;4861561;29;20363;-90
2023/05/01 08:25:28;;;;;;;9.20;5.10;;;12.60;98.90;;;;;;4863099;29;20048;-90
2023/05/01 08:27:54;;;;;;;10.02;5.15;;;12.70;99.30;;;;;;4863945;29;20080;-90
2023/05/01 08:30:20;;;;;;;10.35;4.70;;;12.70;98.80;;;;;;4887195;29;20529;-89
2023/05/01 08:32:45;;;;;;;11.35;4.47;;;12.80;98.00;;;;;;4884245;29;20084;-90
2023/05/01 08:35:11;;;;;;;9.50;4.57;;;12.90;96.80;;;;;;4862013;29;20080;-88
2023/05/01 08:37:37;;;;;;;10.15;5.00;;;13.00;97.10;;;;;;4861027;29;20037;-88
2023/05/01 08:40:07;;;;;;;11.05;4.53;;;13.10;97.20;;;;;;4865831;29;20089;-88
2023/05/01 08:42:37;;;;;;;10.25;4.07;;;13.20;96.40;;;;;;4879873;29;20048;-87
2023/05/01 08:45:07;;;;;;;13.38;4.88;;;13.30;95.40;;;;;;4865142;29;20057;-87
2023/05/01 08:47:35;;;;;;;11.68;4.22;;;13.30;96.60;;;;;;4883144;29;20096;-88
2023/05/01 08:50:03;;;;;;;11.32;3.97;;;13.40;96.20;;;;;;4861380;29;20405;-85
2023/05/01 08:52:30;;;;;;;10.35;4.30;;;13.60;95.90;;;;;;4870631;29;20481;-86
2023/05/01 08:54:58;;;;;;;9.63;4.25;;;13.60;94.60;;;;;;4864239;29;20052;-86
2023/05/01 08:57:26;;;;;;;7.70;5.03;;;13.70;94.10;;;;;;4886548;29;20037;-86
2023/05/01 08:59:55;;;;;;;8.88;4.97;;;13.80;96.50;;;;;;4884811;29;20108;-88
2023/05/01 09:02:23;;;;;;;7.68;4.70;;;13.90;98.30;;;;;;4866910;29;20052;-86
2023/05/01 09:04:50;;;;;;;9.32;3.92;;;14.00;98.40;;;;;;4880862;29;20080;-87
2023/05/01 09:07:16;;;;;;;9.77;4.00;;;14.10;96.50;;;;;;4863832;29;20049;-85
2023/05/01 09:09:42;;;;;;;9.18;4.38;;;14.20;95.10;;;;;;4881666;29;20050;-86
2023/05/01 09:12:23;;;;;;;8.55;4.40;;;14.30;95.10;;;;;;4873575;29;20092;-87
2023/05/01 09:14:54;;;;;;;7.82;3.85;;;14.40;95.60;;;;;;4871178;29;20045;-88
2023/05/01 09:17:21;;;;;;;10.25;3.83;;;14.50;94.30;;;;;;4868365;29;20036;-88
2023/05/01 09:19:49;;;;;;;13.80;3.90;;;14.60;92.40;;;;;;4865993;29;20045;-86
2023/05/01 09:22:17;;;;;;;6.90;3.90;;;14.70;91.80;;;;;;4879714;29;20045;-87
2023/05/01 09:24:43;;;;;;;9.35;3.90;;;14.80;92.70;;;;;;4878356;29;20070;-86
2023/05/01 09:27:12;;;;;;;10.38;3.78;;;14.90;92.40;;;;;;4884512;29;20599;-87
2023/05/01 09:29:39;;;;;;;8.52;4.38;;;15.00;91.80;;;;;;4887744;29;20048;-88
2023/05/01 09:32:32;;;;;;;7.72;3.67;;;15.10;93.00;;;;;;4889639;29;20055;-86
2023/05/01 09:35:12;;;;;;;6.68;3.42;;;15.20;92.70;;;;;;4892012;29;20040;-86
2023/05/01 09:37:38;;;;;;;12.15;3.65;;;15.30;91.30;;;;;;4884602;29;20171;-87
2023/05/01 09:40:08;;;;;;;8.63;4.10;;;15.40;90.40;;;;;;4860373;29;20040;-87
2023/05/01 09:42:39;;;;;;;11.85;3.88;;;15.50;91.50;;;;;;4861654;29;20542;-87
2023/05/01 09:45:15;;;;;;;9.25;3.67;;;15.60;90.50;;;;;;4862943;29;20096;-87
2023/05/01 09:47:45;;;;;;;8.23;3.50;;;15.70;89.20;;;;;;4864691;29;20113;-86
2023/05/01 09:50:31;;;;;;;9.93;3.50;;;15.80;87.80;;;;;;4879490;29;20423;-85
2023/05/01 09:52:56;;;;;;;7.93;3.38;;;15.90;87.00;;;;;;4883633;29;20045;-86
2023/05/01 09:55:23;;;;;;;8.05;3.67;;;16.00;85.80;;;;;;4880425;29;20373;-86
2023/05/01 09:57:49;;;;;;;6.82;2.50;;;16.20;86.60;;;;;;4870824;29;20048;-85
2023/05/01 10:00:15;;;;;;;7.35;3.47;;;16.20;83.60;;;;;;4861172;29;20114;-86
2023/05/01 10:02:44;;;;;;;8.18;2.80;;;16.30;89.20;;;;;;4853553;29;20041;-86
2023/05/01 10:05:10;;;;;;;6.88;2.78;;;16.40;85.20;;;;;;4870776;29;20087;-86
2023/05/01 10:07:36;;;;;;;7.00;2.63;;;16.40;83.50;;;;;;4883542;29;20135;-86
2023/05/01 10:10:19;;;;;;;7.10;3.20;;;16.40;83.00;;;;;;4868512;29;20132;-86
2023/05/01 10:12:45;;;;;;;5.88;2.72;;;16.50;89.10;;;;;;4853086;29;20060;-88
2023/05/01 10:15:10;;;;;;;8.00;2.85;;;16.60;90.20;;;;;;4857969;29;20097;-88
2023/05/01 10:17:38;;;;;;;7.57;2.40;;;16.60;87.70;;;;;;4875853;29;20417;-85
2023/05/01 10:20:06;;;;;;;5.18;2.30;;;16.60;83.40;;;;;;4864797;29;20049;-88
2023/05/01 10:22:32;;;;;;;6.10;2.40;;;16.70;83.20;;;;;;4879601;29;20037;-89
2023/05/01 10:24:58;;;;;;;6.47;2.80;;;16.80;84.90;;;;;;4862773;29;20105;-86
2023/05/01 10:27:25;;;;;;;7.45;2.80;;;16.90;89.90;;;;;;4862780;29;20043;-88
2023/05/01 10:29:54;;;;;;;6.40;2.67;;;17.00;90.60;;;;;;4861111;29;20454;-87
2023/05/01 10:32:20;;;;;;;7.13;2.47;;;17.10;92.10;;;;;;4869076;29;20051;-86
2023/05/01 10:34:56;;;;;;;7.68;2.83;;;17.10;88.80;;;;;;4862293;29;20436;-85
2023/05/01 10:37:30;;;;;;;6.57;2.50;;;17.20;90.10;;;;;;4862129;29;20041;-86
2023/05/01 10:39:56;;;;;;;6.00;2.30;;;17.30;86.90;;;;;;4878793;29;20049;-87
2023/05/01 10:42:22;;;;;;;5.63;2.25;;;17.30;87.40;;;;;;4862323;29;20057;-86
2023/05/01 10:44:48;;;;;;;8.05;2.30;;;17.40;87.60;;;;;;4874939;29;20059;-86
2023/05/01 10:47:23;;;;;;;7.05;2.00;;;17.50;83.90;;;;;;4872623;29;20049;-86
2023/05/01 10:50:05;;;;;;;6.68;1.90;;;17.50;84.70;;;;;;4866206;29;20418;-87
2023/05/01 10:53:13;;;;;;;7.15;2.53;;;17.60;81.90;;;;;;4880412;29;20079;-87
2023/05/01 10:55:41;;;;;;;5.05;1.67;;;17.70;83.90;;;;;;4862609;29;20363;-87
2023/05/01 10:58:07;;;;;;;5.65;1.30;;;17.70;83.60;;;;;;4854445;29;20041;-87
2023/05/01 11:00:33;;;;;;;5.72;2.00;;;17.80;81.20;;;;;;4861776;29;20045;-87
2023/05/01 11:03:25;;;;;;;5.25;1.63;;;17.90;86.70;;;;;;4874459;29;20132;-89
2023/05/01 11:06:00;;;;;;;4.75;1.55;;;17.90;82.90;;;;;;4843551;29;20103;-87
2023/05/01 11:08:39;;;;;;;4.65;1.50;;;18.00;83.40;;;;;;4858765;29;20049;-88
2023/05/01 11:11:20;;;;;;;5.03;1.30;;;18.00;77.30;;;;;;4868744;29;20056;-87
2023/05/01 11:14:03;;;;;;;4.68;1.50;;;18.20;75.70;;;;;;4856737;29;20490;-86
2023/05/01 11:16:45;;;;;;;5.53;1.30;;;18.20;76.60;;;;;;4874793;29;20124;-87
2023/05/01 11:19:19;;;;;;;4.25;1.42;;;18.30;79.40;;;;;;4860460;29;20139;-86
2023/05/01 11:21:46;;;;;;;4.20;1.40;;;18.30;82.20;;;;;;4859817;29;20045;-86
2023/05/01 11:24:11;;;;;;;6.15;1.23;;;18.40;85.40;;;;;;4877771;29;20128;-87
2023/05/01 11:26:41;;;;;;;3.95;1.40;;;18.40;82.70;;;;;;4883708;29;20170;-86
2023/05/01 11:29:11;;;;;;;3.22;1.17;;;18.50;78.60;;;;;;4868416;29;20070;-86
2023/05/01 11:31:38;;;;;;;3.30;1.30;;;18.50;80.30;;;;;;4878988;29;20048;-86
2023/05/01 11:34:05;;;;;;;3.83;1.38;;;18.60;83.00;;;;;;4887904;29;20430;-86
2023/05/01 11:36:50;;;;;;;3.13;1.00;;;18.70;82.40;;;;;;4886816;29;20048;-87
2023/05/01 11:39:16;;;;;;;3.50;1.23;;;18.70;78.40;;;;;;4860042;29;20052;-87
2023/05/01 11:41:42;;;;;;;3.45;1.35;;;18.80;81.90;;;;;;4869564;29;20072;-88
2023/05/01 11:44:11;;;;;;;4.10;1.70;;;18.80;77.90;;;;;;4865716;29;20076;-87
2023/05/01 11:46:36;;;;;;;4.05;1.00;;;18.90;86.00;;;;;;4870418;29;20116;-87
2023/05/01 11:49:02;;;;;;;4.20;1.40;;;18.80;76.40;;;;;;4861228;29;20089;-87
2023/05/01 11:51:29;;;;;;;5.10;1.40;;;18.80;85.10;;;;;;4860968;29;20136;-87
2023/05/01 11:54:08;;;;;;;5.07;1.52;;;18.80;78.30;;;;;;4858192;29;20041;-87
2023/05/01 11:56:35;;;;;;;4.82;1.60;;;18.80;81.20;;;;;;4857870;29;20041;-89
2023/05/01 11:59:15;;;;;;;6.18;1.42;;;18.90;84.40;;;;;;4869836;29;20049;-90
2023/05/01 12:01:43;;;;;;;5.25;1.40;;;18.90;83.60;;;;;;4877220;29;20553;-89
2023/05/01 12:04:09;;;;;;;3.78;1.40;;;19.00;81.60;;;;;;4882112;29;20049;-89
2023/05/01 12:06:43;;;;;;;4.38;1.73;;;19.00;86.10;;;;;;4878074;29;20049;-87
2023/05/01 12:09:14;;;;;;;5.85;1.70;;;19.10;87.00;;;;;;4872096;29;20123;-90
2023/05/01 12:11:41;;;;;;;6.25;1.60;;;19.20;82.00;;;;;;4865320;29;20049;-89
2023/05/01 12:14:07;;;;;;;5.07;1.73;;;19.20;86.10;;;;;;4876179;29;20148;-89
2023/05/01 12:16:34;;;;;;;3.65;1.63;;;19.20;84.10;;;;;;4870987;29;20058;-89
2023/05/01 12:19:00;;;;;;;5.25;1.70;;;19.30;88.10;;;;;;4886144;29;20097;-88
2023/05/01 12:21:27;;;;;;;4.82;1.58;;;19.30;89.00;;;;;;4883007;29;20065;-88
2023/05/01 12:23:53;;;;;;;3.65;1.50;;;19.40;91.70;;;;;;4854311;29;20053;-88
2023/05/01 12:26:22;;;;;;;6.43;1.65;;;19.50;92.50;;;;;;4883893;29;20434;-89
2023/05/01 12:29:00;;;;;;;5.20;1.65;;;19.60;91.20;;;;;;4881271;29;20458;-89
2023/05/01 12:31:26;;;;;;;5.45;1.52;;;19.60;89.40;;;;;;4882372;29;20040;-89
2023/05/01 12:33:55;;;;;;;5.55;1.42;;;19.70;90.80;;;;;;4864077;29;20051;-89
2023/05/01 12:36:26;;;;;;;4.40;1.25;;;19.70;82.80;;;;;;4882239;29;20049;-87
2023/05/01 12:38:59;;;;;;;3.80;1.10;;;19.60;78.00;;;;;;4899813;29;20841;-90
2023/05/01 12:41:53;;;;;;;6.93;1.50;;;19.60;73.70;;;;;;4881504;29;20049;-88
2023/05/01 12:44:23;;;;;;;5.47;1.23;;;19.60;77.10;;;;;;4872158;29;20057;-88
2023/05/01 12:47:03;;;;;;;4.20;1.20;;;19.60;77.40;;;;;;4864864;29;20045;-89
2023/05/01 12:49:29;;;;;;;3.75;1.40;;;19.60;79.70;;;;;;4864119;29;20502;-88
2023/05/01 12:51:56;;;;;;;3.85;1.20;;;19.60;87.00;;;;;;4865635;29;20048;-87
2023/05/01 12:54:30;;;;;;;5.05;1.25;;;19.70;83.20;;;;;;4881949;29;20120;-89